Time;durP1;ratioP1;P1;durP2;ratioP2;P2;SDS_P1;SDS_P2;PMS_P1;PMS_P2;Temp;Humidity;BMP_temperature;BMP_pressure;BME280_temperature;BME280_humidity;BME280_pressure;Samples;Min_cycle;Max_cycle;Signal;HPM_P1;HPM_P2
2021/08/28 00:01:42;;;;;;;4.47;2.33;;;16.00;99.90;;;;;;5094151;28;20136;-63
2021/08/28 00:04:07;;;;;;;2.08;1.10;;;16.00;99.90;;;;;;5094154;28;20035;-62
2021/08/28 00:06:33;;;;;;;1.40;0.70;;;16.00;99.90;;;;;;5094065;28;20054;-62
2021/08/28 00:08:58;;;;;;;1.17;0.90;;;16.10;99.90;;;;;;5093572;28;20028;-63
2021/08/28 00:11:24;;;;;;;1.35;0.50;;;16.00;99.90;;;;;;5094199;28;20042;-63
2021/08/28 00:13:50;;;;;;;1.38;1.02;;;15.90;99.90;;;;;;5093430;28;20031;-63
2021/08/28 00:16:16;;;;;;;3.10;1.45;;;15.90;99.90;;;;;;5094189;28;20070;-62
2021/08/28 00:18:41;;;;;;;3.20;1.02;;;15.90;99.90;;;;;;5093784;28;20412;-61
2021/08/28 00:21:07;;;;;;;2.45;1.17;;;15.80;99.90;;;;;;5093414;28;20507;-61
2021/08/28 00:23:33;;;;;;;2.58;1.05;;;15.80;99.90;;;;;;5093302;28;20522;-62
2021/08/28 00:25:58;;;;;;;2.10;1.20;;;15.80;99.90;;;;;;5092380;28;20035;-62
2021/08/28 00:28:24;;;;;;;2.03;1.25;;;15.70;99.90;;;;;;5094542;28;20125;-63
2021/08/28 00:30:49;;;;;;;2.88;0.98;;;15.70;99.90;;;;;;5092065;28;20032;-63
2021/08/28 00:33:16;;;;;;;2.47;1.10;;;15.70;99.90;;;;;;5092453;28;20021;-62
2021/08/28 00:35:43;;;;;;;2.88;2.38;;;15.60;99.90;;;;;;5092541;28;20086;-63
2021/08/28 00:38:10;;;;;;;2.58;1.02;;;15.60;99.90;;;;;;5093274;28;20028;-61
2021/08/28 00:40:39;;;;;;;1.55;1.17;;;15.50;99.90;;;;;;5092291;28;20028;-63
2021/08/28 00:43:05;;;;;;;6.55;2.22;;;15.50;99.90;;;;;;5093036;28;20465;-63
2021/08/28 00:45:38;;;;;;;4.28;2.00;;;15.40;99.90;;;;;;5093481;28;20067;-63
2021/08/28 00:48:07;;;;;;;1.73;1.10;;;15.40;99.90;;;;;;5091934;28;20039;-62
2021/08/28 00:50:34;;;;;;;2.67;1.08;;;15.40;99.90;;;;;;5084502;28;20041;-62
2021/08/28 00:53:08;;;;;;;2.22;1.10;;;15.40;99.90;;;;;;5072663;28;20032;-62
2021/08/28 00:55:38;;;;;;;1.88;1.30;;;15.40;99.90;;;;;;5073822;28;20569;-62
2021/08/28 00:58:05;;;;;;;2.25;0.88;;;15.40;99.90;;;;;;5070818;28;20031;-62
2021/08/28 01:00:40;;;;;;;1.63;1.27;;;15.50;99.90;;;;;;5072957;28;20036;-63
2021/08/28 01:03:07;;;;;;;1.50;1.40;;;15.50;99.90;;;;;;5072408;28;20143;-63
2021/08/28 01:05:44;;;;;;;3.40;1.40;;;15.50;99.90;;;;;;5072871;28;20350;-62
2021/08/28 01:08:24;;;;;;;3.33;1.25;;;15.50;99.90;;;;;;5072320;28;20430;-63
2021/08/28 01:11:04;;;;;;;1.58;1.40;;;15.50;99.90;;;;;;5071890;28;20029;-63
2021/08/28 01:13:32;;;;;;;1.70;1.20;;;15.50;99.90;;;;;;5071301;28;20134;-63
2021/08/28 01:16:00;;;;;;;1.98;1.15;;;15.50;99.90;;;;;;5070597;28;20194;-63
2021/08/28 01:18:27;;;;;;;2.28;1.60;;;15.50;99.90;;;;;;5071136;28;20078;-63
2021/08/28 01:21:22;;;;;;;3.78;1.05;;;15.40;99.90;;;;;;5070142;28;20040;-63
2021/08/28 01:23:48;;;;;;;2.22;1.02;;;15.40;99.90;;;;;;5072352;28;20130;-63
2021/08/28 01:26:18;;;;;;;1.30;1.15;;;15.40;99.90;;;;;;5071568;28;20424;-63
2021/08/28 01:28:49;;;;;;;2.38;0.85;;;15.40;99.90;;;;;;5071053;28;20039;-63
2021/08/28 01:31:16;;;;;;;1.40;1.30;;;15.40;99.90;;;;;;5070448;28;20032;-62
2021/08/28 01:33:43;;;;;;;1.42;1.17;;;15.30;99.90;;;;;;5072415;28;20102;-63
2021/08/28 01:36:13;;;;;;;2.40;1.20;;;15.30;99.90;;;;;;5071555;28;20020;-63
2021/08/28 01:38:41;;;;;;;2.75;1.67;;;15.20;99.90;;;;;;5070588;28;20020;-63
2021/08/28 01:41:06;;;;;;;2.97;1.30;;;15.20;99.90;;;;;;5071300;28;20127;-63
2021/08/28 01:43:32;;;;;;;1.40;1.30;;;15.10;99.90;;;;;;5070461;28;20108;-63
2021/08/28 01:45:59;;;;;;;4.50;1.80;;;15.10;99.90;;;;;;5071557;28;20021;-63
2021/08/28 01:48:25;;;;;;;2.92;1.55;;;15.10;99.90;;;;;;5071745;28;20074;-63
2021/08/28 01:50:52;;;;;;;2.38;1.50;;;15.00;99.90;;;;;;5071410;28;20543;-76
2021/08/28 01:53:19;;;;;;;1.67;1.30;;;15.00;99.90;;;;;;5071928;28;20060;-63
2021/08/28 01:55:45;;;;;;;2.85;1.67;;;14.90;99.90;;;;;;5071772;28;20052;-62
2021/08/28 01:58:14;;;;;;;2.85;1.73;;;15.00;99.90;;;;;;5069576;28;20056;-62
2021/08/28 02:00:39;;;;;;;1.90;1.80;;;15.00;99.90;;;;;;5070106;28;20028;-62
2021/08/28 02:03:05;;;;;;;3.80;1.55;;;15.00;99.90;;;;;;5069677;28;20120;-62
2021/08/28 02:05:36;;;;;;;2.55;1.30;;;14.90;99.90;;;;;;5070425;28;20063;-62
2021/08/28 02:08:05;;;;;;;3.00;2.05;;;14.90;99.90;;;;;;5071130;28;20024;-62
2021/08/28 02:10:39;;;;;;;2.35;2.00;;;14.90;99.90;;;;;;5071720;28;20131;-62
2021/08/28 02:13:19;;;;;;;2.15;1.60;;;14.90;99.90;;;;;;5071029;28;20032;-63
2021/08/28 02:15:49;;;;;;;3.30;1.75;;;14.90;99.90;;;;;;5070693;28;20025;-62
2021/08/28 02:18:30;;;;;;;3.55;1.33;;;14.90;99.90;;;;;;5071214;28;20032;-63
2021/08/28 02:21:00;;;;;;;2.28;1.50;;;14.80;99.90;;;;;;5070726;28;20027;-63
2021/08/28 02:23:35;;;;;;;1.60;1.40;;;14.70;99.90;;;;;;5071309;28;20107;-63
2021/08/28 02:26:08;;;;;;;5.20;2.28;;;14.80;99.90;;;;;;5069277;28;20078;-63
2021/08/28 02:29:02;;;;;;;1.67;1.40;;;14.80;99.90;;;;;;5071260;28;20039;-64
2021/08/28 02:31:34;;;;;;;4.25;1.58;;;14.80;99.90;;;;;;5071171;28;20028;-63
2021/08/28 02:34:03;;;;;;;1.40;1.30;;;14.80;99.90;;;;;;5069497;28;20039;-62
2021/08/28 02:36:30;;;;;;;3.47;1.70;;;14.80;99.90;;;;;;5069867;28;20438;-62
2021/08/28 02:38:56;;;;;;;2.40;1.80;;;14.80;99.90;;;;;;5070347;28;20020;-63
2021/08/28 02:41:23;;;;;;;3.70;2.33;;;14.70;99.90;;;;;;5071211;28;20025;-64
2021/08/28 02:43:50;;;;;;;4.95;1.85;;;14.70;99.90;;;;;;5070767;28;20033;-62
2021/08/28 02:46:17;;;;;;;2.13;1.60;;;14.60;99.90;;;;;;5069023;28;20070;-62
2021/08/28 02:48:44;;;;;;;2.92;1.73;;;14.50;99.90;;;;;;5069722;28;20036;-62
2021/08/28 02:51:11;;;;;;;2.45;2.00;;;14.60;99.90;;;;;;5070510;28;20119;-62
2021/08/28 02:53:45;;;;;;;2.95;1.92;;;14.60;99.90;;;;;;5071060;28;20373;-62
2021/08/28 02:56:11;;;;;;;3.63;2.13;;;14.60;99.90;;;;;;5068989;28;20079;-64
2021/08/28 02:58:37;;;;;;;2.47;2.20;;;14.60;99.90;;;;;;5070486;28;20047;-63
2021/08/28 03:01:07;;;;;;;4.00;2.15;;;14.60;99.90;;;;;;5070209;28;20434;-62
2021/08/28 03:03:33;;;;;;;2.25;2.05;;;14.60;99.90;;;;;;5070599;28;20021;-62
2021/08/28 03:06:00;;;;;;;2.20;1.92;;;14.60;99.90;;;;;;5070350;28;20103;-63
2021/08/28 03:08:26;;;;;;;2.78;2.05;;;14.50;99.90;;;;;;5070896;28;20466;-63
2021/08/28 03:10:53;;;;;;;3.17;2.13;;;14.40;99.90;;;;;;5070641;28;20028;-63
2021/08/28 03:13:19;;;;;;;3.00;1.92;;;14.40;99.90;;;;;;5069953;28;20064;-62
2021/08/28 03:15:47;;;;;;;2.28;2.08;;;14.40;99.90;;;;;;5070707;28;20021;-63
2021/08/28 03:18:16;;;;;;;1.50;1.40;;;14.40;99.90;;;;;;5070033;28;20021;-63
2021/08/28 03:20:45;;;;;;;2.08;1.80;;;14.40;99.90;;;;;;5070571;28;20028;-63
2021/08/28 03:23:14;;;;;;;2.47;1.90;;;14.40;99.90;;;;;;5069466;28;20063;-62
2021/08/28 03:25:41;;;;;;;2.35;1.90;;;14.40;99.90;;;;;;5070199;28;20485;-61
2021/08/28 03:28:07;;;;;;;3.80;2.00;;;14.40;99.90;;;;;;5071055;28;20120;-61
2021/08/28 03:30:33;;;;;;;3.08;1.58;;;14.40;99.90;;;;;;5074809;28;20024;-61
2021/08/28 03:32:59;;;;;;;3.50;2.40;;;14.40;99.90;;;;;;5073894;28;20082;-62
2021/08/28 03:35:25;;;;;;;4.53;2.03;;;14.30;99.90;;;;;;5073195;28;20120;-62
2021/08/28 03:37:51;;;;;;;2.53;2.15;;;14.30;99.90;;;;;;5074502;28;20048;-61
2021/08/28 03:40:17;;;;;;;2.15;1.77;;;14.30;99.90;;;;;;5074015;28;20033;-61
2021/08/28 03:42:43;;;;;;;3.08;2.35;;;14.30;99.90;;;;;;5074635;28;20021;-61
2021/08/28 03:45:10;;;;;;;2.65;1.83;;;14.30;99.90;;;;;;5073865;28;20304;-61
2021/08/28 03:47:40;;;;;;;1.70;1.58;;;14.30;99.90;;;;;;5074136;28;20033;-62
2021/08/28 03:50:06;;;;;;;3.15;2.15;;;14.30;99.90;;;;;;5073366;28;20056;-61
2021/08/28 03:52:31;;;;;;;1.95;1.75;;;14.30;99.90;;;;;;5074166;28;20446;-61
2021/08/28 03:54:57;;;;;;;2.20;1.98;;;14.20;99.90;;;;;;5072656;28;20025;-61
2021/08/28 03:57:22;;;;;;;2.45;1.70;;;14.30;99.90;;;;;;5073571;28;20028;-61
2021/08/28 03:59:48;;;;;;;2.25;2.03;;;14.30;99.90;;;;;;5074323;28;20024;-62
2021/08/28 04:02:14;;;;;;;2.20;1.63;;;14.30;99.90;;;;;;5073497;28;20409;-62
2021/08/28 04:04:39;;;;;;;2.00;1.77;;;14.30;99.90;;;;;;5073435;28;20067;-62
2021/08/28 04:07:05;;;;;;;2.03;1.60;;;14.30;99.90;;;;;;5073342;28;20029;-62
2021/08/28 04:09:30;;;;;;;2.03;1.50;;;14.30;99.90;;;;;;5072258;28;20024;-62
2021/08/28 04:11:56;;;;;;;3.15;2.05;;;14.20;99.90;;;;;;5073542;28;20102;-62
2021/08/28 04:14:21;;;;;;;2.15;1.95;;;14.20;99.90;;;;;;5073563;28;20028;-62
2021/08/28 04:16:47;;;;;;;2.20;2.00;;;14.20;99.90;;;;;;5074067;28;20032;-62
2021/08/28 04:19:13;;;;;;;3.22;1.90;;;14.20;99.90;;;;;;5071606;28;20024;-62
2021/08/28 04:21:38;;;;;;;3.97;2.28;;;14.20;99.90;;;;;;5072467;28;20063;-62
2021/08/28 04:24:04;;;;;;;2.15;1.73;;;14.20;99.90;;;;;;5071903;28;20135;-62
2021/08/28 04:26:29;;;;;;;3.50;2.15;;;14.20;99.90;;;;;;5072474;28;20366;-62
2021/08/28 04:28:56;;;;;;;2.10;1.90;;;14.20;99.90;;;;;;5070678;28;20055;-62
2021/08/28 04:31:23;;;;;;;1.90;1.80;;;14.20;99.90;;;;;;5069931;28;20035;-62
2021/08/28 04:33:49;;;;;;;2.63;2.17;;;14.20;99.90;;;;;;5070892;28;20485;-61
2021/08/28 04:36:14;;;;;;;1.90;1.80;;;14.20;99.90;;;;;;5071752;28;20032;-61
2021/08/28 04:38:40;;;;;;;2.08;1.92;;;14.20;99.90;;;;;;5070556;28;20143;-61
2021/08/28 04:41:06;;;;;;;2.28;2.08;;;14.30;99.90;;;;;;5070364;28;20028;-61
2021/08/28 04:43:31;;;;;;;4.55;2.15;;;14.30;99.90;;;;;;5070737;28;20028;-61
2021/08/28 04:45:57;;;;;;;2.10;1.88;;;14.30;99.90;;;;;;5071042;28;20050;-61
2021/08/28 04:48:23;;;;;;;3.40;2.25;;;14.30;99.90;;;;;;5071493;28;20450;-61
2021/08/28 04:50:48;;;;;;;2.35;2.13;;;14.30;99.90;;;;;;5071949;28;20170;-61
2021/08/28 04:53:14;;;;;;;4.03;2.08;;;14.40;99.90;;;;;;5071590;28;20045;-62
2021/08/28 04:55:39;;;;;;;2.05;1.83;;;14.40;99.90;;;;;;5072218;28;20383;-61
2021/08/28 04:58:05;;;;;;;2.85;2.00;;;14.50;99.90;;;;;;5071475;28;20472;-62
2021/08/28 05:00:31;;;;;;;6.60;3.65;;;14.50;99.90;;;;;;5070721;28;20035;-61
2021/08/28 05:02:57;;;;;;;2.78;1.95;;;14.50;99.90;;;;;;5072100;28;20026;-62
2021/08/28 05:05:23;;;;;;;5.65;2.17;;;14.60;99.90;;;;;;5070211;28;20470;-62
2021/08/28 05:07:48;;;;;;;2.67;2.30;;;14.50;99.90;;;;;;5072063;28;20089;-61
2021/08/28 05:10:14;;;;;;;1.95;1.75;;;14.60;99.90;;;;;;5071047;28;20043;-62
2021/08/28 05:12:40;;;;;;;2.08;1.90;;;14.70;99.90;;;;;;5071889;28;20402;-62
2021/08/28 05:15:06;;;;;;;1.98;1.73;;;14.60;99.90;;;;;;5071454;28;20059;-62
2021/08/28 05:17:31;;;;;;;2.63;2.17;;;14.70;99.90;;;;;;5071658;28;20032;-62
2021/08/28 05:19:57;;;;;;;2.30;1.75;;;14.80;99.90;;;;;;5071415;28;20028;-62
2021/08/28 05:22:23;;;;;;;2.63;2.17;;;14.80;99.90;;;;;;5032348;28;1081102;-62
2021/08/28 05:24:48;;;;;;;1.55;1.45;;;14.90;99.90;;;;;;5072717;28;20327;-62
2021/08/28 05:27:14;;;;;;;2.65;1.83;;;15.00;99.90;;;;;;5072503;28;20033;-62
2021/08/28 05:29:39;;;;;;;1.80;1.70;;;15.00;99.90;;;;;;5072701;28;20024;-62
2021/08/28 05:32:05;;;;;;;4.50;1.70;;;15.10;99.90;;;;;;5070774;28;20032;-64
2021/08/28 05:34:32;;;;;;;4.20;1.92;;;15.10;99.90;;;;;;5071695;28;20474;-62
2021/08/28 05:36:58;;;;;;;3.42;1.42;;;15.10;99.90;;;;;;5072668;28;20024;-62
2021/08/28 05:39:23;;;;;;;3.25;1.85;;;15.20;99.90;;;;;;5071961;28;20028;-61
2021/08/28 05:41:49;;;;;;;3.20;1.83;;;15.10;99.90;;;;;;5071305;28;20032;-62
2021/08/28 05:44:14;;;;;;;3.22;2.25;;;15.20;99.90;;;;;;5070441;28;20410;-62
2021/08/28 05:46:40;;;;;;;3.33;2.28;;;15.20;99.90;;;;;;5071071;28;20035;-61
2021/08/28 05:49:06;;;;;;;3.25;2.05;;;15.20;99.90;;;;;;5071647;28;20074;-65
2021/08/28 05:51:32;;;;;;;5.28;1.80;;;15.30;99.90;;;;;;5070996;28;20034;-64
2021/08/28 05:53:57;;;;;;;4.20;2.40;;;15.30;99.90;;;;;;5072279;28;20157;-61
2021/08/28 05:56:23;;;;;;;4.75;2.28;;;15.40;99.90;;;;;;5070238;28;20032;-62
2021/08/28 05:58:48;;;;;;;2.20;1.92;;;15.40;99.90;;;;;;5072153;28;20056;-63
2021/08/28 06:01:14;;;;;;;3.08;1.80;;;15.40;99.90;;;;;;5070145;28;20052;-62
2021/08/28 06:03:40;;;;;;;1.98;1.85;;;15.50;99.90;;;;;;5072073;28;20029;-62
2021/08/28 06:06:06;;;;;;;2.58;2.17;;;15.60;99.90;;;;;;5071768;28;20021;-61
2021/08/28 06:08:31;;;;;;;2.90;1.65;;;15.50;99.90;;;;;;5071718;28;20044;-62
2021/08/28 06:10:57;;;;;;;2.47;2.17;;;15.50;99.90;;;;;;5070544;28;20031;-64
2021/08/28 06:13:23;;;;;;;2.28;1.90;;;15.50;99.90;;;;;;5071545;28;20398;-62
2021/08/28 06:15:48;;;;;;;3.45;2.75;;;15.50;99.90;;;;;;5071892;28;20518;-62
2021/08/28 06:18:14;;;;;;;5.22;2.85;;;15.50;99.90;;;;;;5071345;28;20039;-62
2021/08/28 06:20:40;;;;;;;2.97;1.98;;;15.40;99.90;;;;;;5071892;28;20025;-62
2021/08/28 06:23:05;;;;;;;3.75;2.20;;;15.40;99.90;;;;;;5070968;28;20098;-63
2021/08/28 06:25:31;;;;;;;2.70;2.10;;;15.50;99.90;;;;;;5069627;28;20355;-62
2021/08/28 06:27:57;;;;;;;4.22;3.03;;;15.50;99.90;;;;;;5070346;28;20445;-62
2021/08/28 06:30:22;;;;;;;2.63;2.25;;;15.50;99.90;;;;;;5069438;28;20389;-63
2021/08/28 06:32:48;;;;;;;2.70;2.50;;;15.40;99.90;;;;;;5071037;28;20166;-62
2021/08/28 06:35:14;;;;;;;4.45;2.50;;;15.40;99.90;;;;;;5069426;28;20051;-61
2021/08/28 06:37:39;;;;;;;3.00;2.40;;;15.30;99.90;;;;;;5070803;28;20028;-62
2021/08/28 06:40:05;;;;;;;3.05;2.38;;;15.40;99.90;;;;;;5069570;28;20058;-62
2021/08/28 06:42:31;;;;;;;3.55;2.47;;;15.40;99.90;;;;;;5069017;28;20073;-62
2021/08/28 06:44:57;;;;;;;3.53;2.95;;;15.30;99.90;;;;;;5071347;28;20024;-62
2021/08/28 06:47:22;;;;;;;5.18;2.60;;;15.30;99.90;;;;;;5070540;28;20507;-62
2021/08/28 06:49:48;;;;;;;4.60;2.70;;;15.30;99.90;;;;;;5069398;28;20047;-62
2021/08/28 06:52:14;;;;;;;4.63;2.83;;;15.40;99.90;;;;;;5070546;28;20033;-64
2021/08/28 06:54:39;;;;;;;3.42;3.13;;;15.30;99.90;;;;;;5069410;28;20478;-62
2021/08/28 06:57:05;;;;;;;3.05;2.72;;;15.30;99.90;;;;;;5070833;28;20048;-62
2021/08/28 06:59:30;;;;;;;6.38;3.45;;;15.30;99.90;;;;;;5069196;28;20024;-62
2021/08/28 07:01:56;;;;;;;6.35;4.57;;;15.30;99.90;;;;;;5069582;28;20461;-63
2021/08/28 07:04:21;;;;;;;5.57;3.40;;;15.30;99.90;;;;;;5070300;28;20114;-63
2021/08/28 07:06:47;;;;;;;3.95;2.88;;;15.40;99.90;;;;;;5070908;28;20024;-62
2021/08/28 07:09:13;;;;;;;4.78;3.42;;;15.30;99.90;;;;;;5069818;28;20492;-62
2021/08/28 07:11:38;;;;;;;4.55;3.15;;;15.40;99.90;;;;;;5070789;28;20028;-62
2021/08/28 07:14:04;;;;;;;5.90;2.67;;;15.40;99.90;;;;;;5069198;28;20028;-62
2021/08/28 07:16:30;;;;;;;3.55;3.10;;;15.50;99.90;;;;;;5070225;28;20218;-62
2021/08/28 07:18:55;;;;;;;4.10;2.90;;;15.60;99.90;;;;;;5069149;28;20082;-62
2021/08/28 07:21:21;;;;;;;4.13;3.03;;;15.50;99.90;;;;;;5068511;28;20115;-63
2021/08/28 07:23:47;;;;;;;5.03;3.03;;;15.60;99.90;;;;;;5070864;28;20060;-61
2021/08/28 07:26:15;;;;;;;3.58;2.92;;;15.70;99.90;;;;;;5070244;28;20024;-64
2021/08/28 07:28:40;;;;;;;4.32;3.55;;;15.70;99.90;;;;;;5068958;28;20028;-61
2021/08/28 07:31:06;;;;;;;5.05;3.50;;;15.80;99.90;;;;;;5070369;28;20035;-62
2021/08/28 07:33:32;;;;;;;5.32;3.17;;;15.70;99.90;;;;;;5068414;28;20123;-62
2021/08/28 07:35:57;;;;;;;5.18;3.30;;;15.80;99.90;;;;;;5070770;28;20029;-62
2021/08/28 07:38:23;;;;;;;3.45;1.88;;;15.80;99.90;;;;;;5069938;28;20462;-49
2021/08/28 07:40:49;;;;;;;2.22;1.55;;;16.40;99.90;;;;;;5070433;28;20039;-49
2021/08/28 07:43:15;;;;;;;5.40;2.70;;;17.10;99.90;;;;;;5068017;28;20063;-50
2021/08/28 07:45:40;;;;;;;3.38;1.63;;;17.30;99.90;;;;;;5069034;28;20457;-49
2021/08/28 07:48:06;;;;;;;4.25;1.88;;;17.90;99.90;;;;;;5070485;28;20025;-49
2021/08/28 07:50:32;;;;;;;4.03;2.22;;;17.80;99.90;;;;;;5067981;28;20289;-49
2021/08/28 07:52:57;;;;;;;2.28;1.30;;;17.90;99.90;;;;;;5069796;28;20110;-49
2021/08/28 07:55:25;;;;;;;3.42;1.80;;;18.20;99.90;;;;;;5066453;28;20028;-50
2021/08/28 07:57:51;;;;;;;2.30;1.60;;;18.50;99.90;;;;;;5068125;28;20025;-49
2021/08/28 08:00:17;;;;;;;3.70;2.47;;;18.50;99.90;;;;;;5068326;28;20050;-56
2021/08/28 08:02:43;;;;;;;2.03;1.83;;;18.60;99.90;;;;;;5069132;28;20490;-49
2021/08/28 08:05:09;;;;;;;5.63;2.30;;;18.80;99.90;;;;;;5071044;28;20108;-50
2021/08/28 08:07:35;;;;;;;6.28;2.33;;;19.00;99.90;;;;;;5068334;28;20112;-57
2021/08/28 08:10:01;;;;;;;7.72;2.25;;;19.20;99.90;;;;;;5069313;28;20104;-49
2021/08/28 08:12:27;;;;;;;3.33;1.70;;;19.80;99.90;;;;;;5068022;28;20181;-50
2021/08/28 08:14:53;;;;;;;4.10;1.83;;;20.20;99.90;;;;;;5071440;28;20075;-50
2021/08/28 08:17:18;;;;;;;3.17;1.67;;;20.10;99.90;;;;;;5071126;28;20020;-50
2021/08/28 08:19:44;;;;;;;3.35;2.35;;;20.20;99.90;;;;;;5072888;28;20431;-50
2021/08/28 08:22:10;;;;;;;6.15;1.63;;;20.20;99.90;;;;;;5072695;28;20088;-49
2021/08/28 08:24:36;;;;;;;1.77;1.30;;;20.10;99.90;;;;;;5071776;28;20655;-50
2021/08/28 08:27:02;;;;;;;3.72;1.60;;;20.10;99.90;;;;;;5072901;28;20374;-50
2021/08/28 08:29:27;;;;;;;2.80;2.00;;;20.10;99.90;;;;;;5071753;28;20111;-50
2021/08/28 08:31:54;;;;;;;1.92;1.50;;;20.10;99.90;;;;;;5072740;28;20531;-49
2021/08/28 08:34:23;;;;;;;4.32;1.60;;;19.80;99.90;;;;;;5078496;28;20122;-50
2021/08/28 08:36:50;;;;;;;3.45;1.45;;;19.80;99.90;;;;;;5092633;28;20032;-51
2021/08/28 08:39:16;;;;;;;2.10;1.80;;;19.90;99.90;;;;;;5092144;28;20051;-57
2021/08/28 08:41:45;;;;;;;6.47;2.28;;;19.80;99.90;;;;;;5091359;28;20046;-50
2021/08/28 08:44:12;;;;;;;2.60;1.80;;;19.80;99.90;;;;;;5092314;28;20024;-51
2021/08/28 08:46:39;;;;;;;4.07;2.58;;;20.00;99.90;;;;;;5091277;28;20039;-49
2021/08/28 08:49:06;;;;;;;1.88;1.33;;;20.20;99.90;;;;;;5092500;28;20036;-53
2021/08/28 08:51:35;;;;;;;2.97;1.48;;;20.90;99.90;;;;;;5091820;28;20423;-53
2021/08/28 08:54:02;;;;;;;1.83;1.05;;;21.00;99.90;;;;;;5092556;28;20032;-54
2021/08/28 08:56:28;;;;;;;0.70;0.68;;;21.10;99.90;;;;;;5090722;28;20028;-54
2021/08/28 08:58:54;;;;;;;2.00;1.38;;;21.20;99.90;;;;;;5091298;28;20020;-53
2021/08/28 09:01:20;;;;;;;2.08;0.93;;;21.20;99.90;;;;;;5086355;28;20406;-53
2021/08/28 09:03:46;;;;;;;2.03;0.88;;;21.20;99.90;;;;;;5071808;28;20029;-53
2021/08/28 09:06:12;;;;;;;3.50;0.90;;;21.10;99.90;;;;;;5072113;28;20416;-53
2021/08/28 09:08:37;;;;;;;4.15;1.10;;;21.10;99.90;;;;;;5069370;28;20047;-52
2021/08/28 09:11:03;;;;;;;1.60;1.25;;;21.20;99.90;;;;;;5069984;28;20032;-52
2021/08/28 09:13:30;;;;;;;3.85;1.17;;;21.30;99.90;;;;;;5070666;28;20068;-53
2021/08/28 09:16:07;;;;;;;4.05;1.08;;;21.40;99.90;;;;;;5080605;28;20052;-51
2021/08/28 09:18:50;;;;;;;1.30;1.20;;;21.40;99.90;;;;;;5085299;28;20032;-49
2021/08/28 09:21:16;;;;;;;1.50;1.23;;;21.60;99.90;;;;;;5091149;28;20035;-60
2021/08/28 09:23:42;;;;;;;2.67;0.82;;;21.50;99.90;;;;;;5091003;28;20073;-50
2021/08/28 09:26:33;;;;;;;1.27;0.73;;;21.50;99.90;;;;;;5090538;28;20110;-50
2021/08/28 09:28:58;;;;;;;1.75;0.80;;;21.60;99.90;;;;;;5091313;28;20032;-50
2021/08/28 09:31:44;;;;;;;0.85;0.82;;;22.00;99.90;;;;;;5085536;28;20039;-53
2021/08/28 09:34:40;;;;;;;3.33;1.02;;;22.20;98.80;;;;;;5087088;28;20086;-50
2021/08/28 09:37:07;;;;;;;1.67;1.00;;;22.40;99.40;;;;;;5073377;28;20429;-51
2021/08/28 09:39:47;;;;;;;1.33;1.23;;;22.80;98.50;;;;;;5089406;28;20443;-51
2021/08/28 09:42:21;;;;;;;2.80;0.90;;;23.10;98.40;;;;;;5090492;28;20020;-51
2021/08/28 09:44:50;;;;;;;0.80;0.80;;;23.20;98.60;;;;;;5090043;28;20089;-53
2021/08/28 09:47:17;;;;;;;1.90;0.50;;;23.10;97.80;;;;;;5091218;28;20020;-51
2021/08/28 09:49:48;;;;;;;1.58;0.65;;;22.80;98.60;;;;;;5088974;28;20036;-53
2021/08/28 09:52:19;;;;;;;1.10;0.70;;;22.60;97.80;;;;;;5091587;28;20040;-54
2021/08/28 09:54:46;;;;;;;2.97;0.70;;;22.50;99.00;;;;;;5089687;28;20036;-51
2021/08/28 09:57:12;;;;;;;1.52;0.70;;;22.30;98.50;;;;;;5089842;28;20035;-52
2021/08/28 09:59:38;;;;;;;1.85;1.00;;;22.00;99.30;;;;;;5090635;28;20035;-54
2021/08/28 10:02:10;;;;;;;14.80;1.83;;;22.00;98.40;;;;;;5090870;28;20040;-53
2021/08/28 10:04:53;;;;;;;13.10;1.60;;;22.20;99.00;;;;;;5089322;28;20078;-53
2021/08/28 10:07:21;;;;;;;2.22;1.20;;;22.00;99.50;;;;;;5089510;28;20078;-60
2021/08/28 10:09:51;;;;;;;3.50;1.70;;;22.00;98.80;;;;;;5089653;28;20078;-53
2021/08/28 10:12:18;;;;;;;2.45;1.20;;;22.10;98.80;;;;;;5084971;28;20119;-53
2021/08/28 10:14:45;;;;;;;2.28;0.82;;;22.00;98.30;;;;;;5069047;28;20024;-53
2021/08/28 10:17:11;;;;;;;4.00;0.82;;;22.20;99.00;;;;;;5069577;28;20074;-53
2021/08/28 10:19:37;;;;;;;2.10;0.80;;;22.50;98.00;;;;;;5067977;28;20025;-53
2021/08/28 10:22:03;;;;;;;3.40;0.93;;;22.40;97.00;;;;;;5068820;28;20057;-53
2021/08/28 10:24:29;;;;;;;2.83;0.52;;;22.50;97.30;;;;;;5085009;28;20088;-52
2021/08/28 10:26:55;;;;;;;1.48;0.57;;;22.40;97.40;;;;;;5070569;28;20422;-53
2021/08/28 10:29:22;;;;;;;2.05;0.60;;;22.20;97.00;;;;;;5069776;28;20494;-61
2021/08/28 10:31:50;;;;;;;0.77;0.47;;;22.00;98.10;;;;;;5069985;28;20047;-53
2021/08/28 10:34:16;;;;;;;1.83;0.47;;;21.90;98.00;;;;;;5070564;28;20028;-52
2021/08/28 10:36:43;;;;;;;1.67;0.77;;;21.80;98.40;;;;;;5067556;28;20465;-54
2021/08/28 10:39:09;;;;;;;2.35;0.60;;;21.70;98.40;;;;;;5070514;28;20082;-53
2021/08/28 10:41:37;;;;;;;1.45;0.55;;;21.50;97.40;;;;;;5067968;28;20101;-53
2021/08/28 10:44:03;;;;;;;1.30;0.65;;;21.40;98.70;;;;;;5085864;28;20458;-52
2021/08/28 10:46:31;;;;;;;3.28;0.60;;;21.10;98.50;;;;;;5068380;28;20028;-52
2021/08/28 10:49:02;;;;;;;0.65;0.50;;;21.00;99.00;;;;;;5068678;28;20029;-52
2021/08/28 10:51:36;;;;;;;2.00;0.80;;;20.90;99.60;;;;;;5069202;28;20040;-53
2021/08/28 10:54:09;;;;;;;1.10;0.70;;;20.80;99.40;;;;;;5069208;28;20439;-52
2021/08/28 10:56:54;;;;;;;1.33;0.52;;;20.80;99.60;;;;;;5064475;28;20047;-53
2021/08/28 10:59:28;;;;;;;2.15;0.47;;;20.70;99.90;;;;;;5068704;28;20068;-52
2021/08/28 11:02:13;;;;;;;0.60;0.60;;;20.70;99.70;;;;;;5070119;28;20537;-53
2021/08/28 11:04:40;;;;;;;0.60;0.50;;;20.70;99.90;;;;;;5067953;28;20474;-53
2021/08/28 11:07:29;;;;;;;2.53;0.60;;;20.70;99.70;;;;;;5070036;28;20028;-52
2021/08/28 11:10:10;;;;;;;0.30;0.28;;;20.70;99.60;;;;;;5085079;28;20083;-53
2021/08/28 11:12:54;;;;;;;0.90;0.50;;;20.70;99.80;;;;;;5069148;28;20033;-52
2021/08/28 11:15:35;;;;;;;1.85;0.20;;;20.70;99.70;;;;;;5070131;28;20399;-53
2021/08/28 11:18:39;;;;;;;1.27;0.50;;;20.70;99.60;;;;;;5068772;28;20020;-53
2021/08/28 11:21:08;;;;;;;3.45;0.50;;;20.70;99.50;;;;;;5068279;28;20036;-52
2021/08/28 11:23:42;;;;;;;1.15;0.50;;;20.60;98.90;;;;;;5027941;28;20072;-52
2021/08/28 11:26:08;;;;;;;0.93;0.40;;;20.70;99.30;;;;;;5028762;28;20032;-51
2021/08/28 11:28:39;;;;;;;0.70;0.50;;;20.70;99.10;;;;;;5029027;28;20025;-53
2021/08/28 11:31:05;;;;;;;0.70;0.20;;;20.90;98.80;;;;;;5029807;28;20030;-53
2021/08/28 11:33:33;;;;;;;0.55;0.20;;;21.30;98.10;;;;;;5027773;28;20140;-52
2021/08/28 11:36:20;;;;;;;0.35;0.30;;;21.90;96.70;;;;;;5029327;28;20026;-58
2021/08/28 11:38:51;;;;;;;3.78;0.40;;;22.30;96.10;;;;;;5028166;28;20060;-53
2021/08/28 11:41:25;;;;;;;4.13;0.28;;;22.80;95.40;;;;;;5030463;28;20384;-55
2021/08/28 11:43:55;;;;;;;4.72;0.50;;;23.30;95.10;;;;;;5047092;28;20425;-53
2021/08/28 11:46:25;;;;;;;1.58;0.30;;;23.60;92.90;;;;;;5044630;28;20040;-57
2021/08/28 11:48:51;;;;;;;0.30;0.20;;;24.10;93.40;;;;;;5047471;28;20143;-56
2021/08/28 11:51:24;;;;;;;0.68;0.10;;;24.90;92.50;;;;;;5053507;28;20025;-56
2021/08/28 11:53:55;;;;;;;1.65;0.32;;;25.40;90.30;;;;;;5052813;28;20044;-57
2021/08/28 11:56:23;;;;;;;0.55;0.20;;;25.80;89.30;;;;;;5051330;28;20079;-59
2021/08/28 11:58:51;;;;;;;2.08;0.20;;;26.10;85.80;;;;;;5051904;28;20099;-56
2021/08/28 12:01:34;;;;;;;0.20;0.20;;;25.10;86.30;;;;;;5051541;28;20075;-58
2021/08/28 12:04:08;;;;;;;1.13;0.35;;;24.80;87.60;;;;;;5051537;28;20055;-57
2021/08/28 12:06:37;;;;;;;0.60;0.30;;;25.50;86.60;;;;;;5050859;28;20453;-57
2021/08/28 12:09:05;;;;;;;1.15;0.47;;;25.40;86.10;;;;;;5052175;28;20474;-57
2021/08/28 12:11:32;;;;;;;1.30;0.25;;;24.70;85.60;;;;;;5051326;28;20536;-58
2021/08/28 12:13:59;;;;;;;2.47;0.30;;;24.30;87.60;;;;;;5052743;28;20029;-57
2021/08/28 12:16:36;;;;;;;0.75;0.40;;;23.60;91.20;;;;;;5052834;28;20021;-65
2021/08/28 12:19:09;;;;;;;1.00;0.30;;;23.50;90.90;;;;;;5052533;28;20467;-57
2021/08/28 12:21:41;;;;;;;6.30;0.55;;;23.40;91.60;;;;;;5054447;28;20082;-56
2021/08/28 12:24:13;;;;;;;0.98;0.43;;;23.10;91.60;;;;;;5092374;28;20036;-56
2021/08/28 12:26:41;;;;;;;1.48;0.30;;;23.00;91.10;;;;;;5074168;28;20032;-55
2021/08/28 12:29:07;;;;;;;1.73;0.30;;;22.70;92.20;;;;;;5091892;28;20111;-57
2021/08/28 12:31:34;;;;;;;1.30;0.43;;;22.60;93.10;;;;;;5085925;28;20124;-57
2021/08/28 12:34:17;;;;;;;0.95;0.40;;;22.60;93.70;;;;;;5091002;28;20443;-54
2021/08/28 12:36:46;;;;;;;0.85;0.32;;;22.50;92.90;;;;;;5091247;28;20024;-53
2021/08/28 12:39:11;;;;;;;0.93;0.40;;;22.50;92.90;;;;;;5093777;28;20055;-52
2021/08/28 12:41:38;;;;;;;2.70;0.55;;;22.30;93.10;;;;;;5092243;28;20491;-53
2021/08/28 12:44:05;;;;;;;0.35;0.25;;;22.20;92.90;;;;;;5090588;28;20418;-54
2021/08/28 12:46:33;;;;;;;1.38;0.50;;;22.20;92.90;;;;;;5089292;28;20051;-55
2021/08/28 12:49:12;;;;;;;1.05;0.68;;;22.40;93.30;;;;;;5087055;28;20031;-52
2021/08/28 12:51:53;;;;;;;3.35;1.13;;;22.40;93.40;;;;;;5069936;28;20036;-52